METAR Data
IDs: Format: Raw Decoded Include TAF

Data at: 1351 UTC 14 Dec 2019

METAR for:KAWG (Washington Muni, IA, US)
Text:KAWG 141335Z AUTO 32007KT 6SM BR OVC009 M03/M03 A2984 RMK AO2
Temperature: -3.0°C ( 27°F)
Dewpoint: -3.0°C ( 27°F) [RH = 100%]
Pressure (altimeter):29.84 inches Hg (1010.6 mb)
Winds:from the NW (320 degrees) at 8 MPH (7 knots; 3.6 m/s)
Visibility: 6 sm ( 10 km)
Ceiling:900 feet AGL
Clouds: overcast cloud deck at 900 feet AGL
Weather:BR (mist)
QC Flag:automated observation with no human augmentation